sensor_id;sensor_type;location;lat;lon;timestamp;P1;durP1;ratioP1;P2;durP2;ratioP2
52450;SDS011;38366;53.176;6.540;2022-09-27T00:01:05;2.25;;;0.50;;
52450;SDS011;38366;53.176;6.540;2022-09-27T00:03:32;4.53;;;0.60;;
52450;SDS011;38366;53.176;6.540;2022-09-27T00:06:10;4.90;;;0.80;;
52450;SDS011;38366;53.176;6.540;2022-09-27T00:08:38;4.60;;;0.80;;
52450;SDS011;38366;53.176;6.540;2022-09-27T00:11:05;4.57;;;0.90;;
52450;SDS011;38366;53.176;6.540;2022-09-27T00:13:34;3.63;;;0.60;;
52450;SDS011;38366;53.176;6.540;2022-09-27T00:16:01;3.83;;;0.60;;
52450;SDS011;38366;53.176;6.540;2022-09-27T00:18:31;5.22;;;0.80;;
52450;SDS011;38366;53.176;6.540;2022-09-27T00:23:30;3.80;;;0.50;;
52450;SDS011;38366;53.176;6.540;2022-09-27T00:25:57;1.73;;;0.50;;
52450;SDS011;38366;53.176;6.540;2022-09-27T00:28:23;4.47;;;0.77;;
52450;SDS011;38366;53.176;6.540;2022-09-27T00:33:15;4.57;;;0.70;;
52450;SDS011;38366;53.176;6.540;2022-09-27T00:35:41;10.05;;;0.85;;
52450;SDS011;38366;53.176;6.540;2022-09-27T00:40:33;5.28;;;0.50;;
52450;SDS011;38366;53.176;6.540;2022-09-27T00:42:59;2.70;;;0.50;;
52450;SDS011;38366;53.176;6.540;2022-09-27T00:45:25;2.47;;;0.43;;
52450;SDS011;38366;53.176;6.540;2022-09-27T00:47:53;3.43;;;0.60;;
52450;SDS011;38366;53.176;6.540;2022-09-27T00:50:26;3.65;;;0.73;;
52450;SDS011;38366;53.176;6.540;2022-09-27T00:53:19;5.22;;;0.73;;
52450;SDS011;38366;53.176;6.540;2022-09-27T00:55:50;4.20;;;0.60;;
52450;SDS011;38366;53.176;6.540;2022-09-27T00:58:28;3.43;;;0.50;;
52450;SDS011;38366;53.176;6.540;2022-09-27T01:00:58;4.53;;;0.60;;
52450;SDS011;38366;53.176;6.540;2022-09-27T01:06:07;3.40;;;0.60;;
52450;SDS011;38366;53.176;6.540;2022-09-27T01:08:34;2.85;;;0.40;;
52450;SDS011;38366;53.176;6.540;2022-09-27T01:11:13;1.50;;;0.30;;
52450;SDS011;38366;53.176;6.540;2022-09-27T01:14:10;4.03;;;0.60;;
52450;SDS011;38366;53.176;6.540;2022-09-27T01:16:55;4.72;;;0.55;;
52450;SDS011;38366;53.176;6.540;2022-09-27T01:19:39;5.22;;;0.70;;
52450;SDS011;38366;53.176;6.540;2022-09-27T01:25:00;6.57;;;1.20;;
52450;SDS011;38366;53.176;6.540;2022-09-27T01:33:24;4.95;;;0.65;;
52450;SDS011;38366;53.176;6.540;2022-09-27T01:36:47;6.90;;;0.65;;
52450;SDS011;38366;53.176;6.540;2022-09-27T01:44:31;1.90;;;0.82;;
52450;SDS011;38366;53.176;6.540;2022-09-27T01:47:02;1.67;;;0.63;;
52450;SDS011;38366;53.176;6.540;2022-09-27T01:49:38;6.18;;;0.77;;
52450;SDS011;38366;53.176;6.540;2022-09-27T01:52:30;4.60;;;0.63;;
52450;SDS011;38366;53.176;6.540;2022-09-27T01:55:02;3.60;;;0.60;;
52450;SDS011;38366;53.176;6.540;2022-09-27T01:57:32;4.40;;;0.68;;
52450;SDS011;38366;53.176;6.540;2022-09-27T02:00:03;6.28;;;0.65;;
52450;SDS011;38366;53.176;6.540;2022-09-27T02:02:32;4.65;;;0.70;;
52450;SDS011;38366;53.176;6.540;2022-09-27T02:05:05;2.65;;;0.60;;
52450;SDS011;38366;53.176;6.540;2022-09-27T02:07:36;4.57;;;1.33;;
52450;SDS011;38366;53.176;6.540;2022-09-27T02:10:28;3.25;;;0.68;;
52450;SDS011;38366;53.176;6.540;2022-09-27T02:13:01;3.28;;;0.60;;
52450;SDS011;38366;53.176;6.540;2022-09-27T02:15:28;2.20;;;0.47;;
52450;SDS011;38366;53.176;6.540;2022-09-27T02:18:02;4.50;;;0.50;;
52450;SDS011;38366;53.176;6.540;2022-09-27T02:20:38;3.63;;;0.60;;
52450;SDS011;38366;53.176;6.540;2022-09-27T02:26:11;3.70;;;0.52;;
52450;SDS011;38366;53.176;6.540;2022-09-27T02:28:42;4.47;;;0.90;;
52450;SDS011;38366;53.176;6.540;2022-09-27T02:31:22;2.50;;;0.60;;
52450;SDS011;38366;53.176;6.540;2022-09-27T02:33:49;4.53;;;0.60;;
52450;SDS011;38366;53.176;6.540;2022-09-27T02:36:20;1.77;;;0.60;;
52450;SDS011;38366;53.176;6.540;2022-09-27T02:41:16;3.45;;;0.60;;
52450;SDS011;38366;53.176;6.540;2022-09-27T02:43:44;5.55;;;0.52;;
52450;SDS011;38366;53.176;6.540;2022-09-27T02:46:20;4.43;;;0.98;;
52450;SDS011;38366;53.176;6.540;2022-09-27T02:51:48;2.58;;;0.52;;
52450;SDS011;38366;53.176;6.540;2022-09-27T02:54:37;2.83;;;0.50;;
52450;SDS011;38366;53.176;6.540;2022-09-27T03:02:37;5.43;;;0.60;;
52450;SDS011;38366;53.176;6.540;2022-09-27T03:05:24;2.60;;;0.60;;
52450;SDS011;38366;53.176;6.540;2022-09-27T03:07:52;7.53;;;0.65;;
52450;SDS011;38366;53.176;6.540;2022-09-27T03:10:20;5.15;;;0.80;;
52450;SDS011;38366;53.176;6.540;2022-09-27T03:12:48;4.45;;;0.55;;
52450;SDS011;38366;53.176;6.540;2022-09-27T03:15:14;7.40;;;0.82;;
52450;SDS011;38366;53.176;6.540;2022-09-27T03:17:40;2.88;;;0.73;;
52450;SDS011;38366;53.176;6.540;2022-09-27T03:20:06;3.25;;;0.52;;
52450;SDS011;38366;53.176;6.540;2022-09-27T03:22:33;3.95;;;0.57;;
52450;SDS011;38366;53.176;6.540;2022-09-27T03:27:25;3.28;;;0.68;;
52450;SDS011;38366;53.176;6.540;2022-09-27T03:29:51;3.90;;;0.50;;
52450;SDS011;38366;53.176;6.540;2022-09-27T03:32:16;2.90;;;0.40;;
52450;SDS011;38366;53.176;6.540;2022-09-27T03:34:43;2.50;;;0.57;;
52450;SDS011;38366;53.176;6.540;2022-09-27T03:37:09;3.55;;;0.80;;
52450;SDS011;38366;53.176;6.540;2022-09-27T03:39:34;1.13;;;0.43;;
52450;SDS011;38366;53.176;6.540;2022-09-27T03:42:00;3.13;;;0.80;;
52450;SDS011;38366;53.176;6.540;2022-09-27T03:44:26;2.13;;;0.40;;
52450;SDS011;38366;53.176;6.540;2022-09-27T03:46:51;4.23;;;0.50;;
52450;SDS011;38366;53.176;6.540;2022-09-27T03:49:17;2.20;;;0.40;;
52450;SDS011;38366;53.176;6.540;2022-09-27T03:51:43;3.00;;;0.50;;
52450;SDS011;38366;53.176;6.540;2022-09-27T03:54:09;4.63;;;0.50;;
52450;SDS011;38366;53.176;6.540;2022-09-27T03:56:35;5.07;;;0.77;;
52450;SDS011;38366;53.176;6.540;2022-09-27T03:59:00;3.30;;;0.70;;
52450;SDS011;38366;53.176;6.540;2022-09-27T04:01:26;3.13;;;0.63;;
52450;SDS011;38366;53.176;6.540;2022-09-27T04:03:53;7.15;;;0.85;;
52450;SDS011;38366;53.176;6.540;2022-09-27T04:06:18;3.38;;;0.50;;
52450;SDS011;38366;53.176;6.540;2022-09-27T04:08:45;4.68;;;0.70;;
52450;SDS011;38366;53.176;6.540;2022-09-27T04:13:37;3.10;;;0.65;;
52450;SDS011;38366;53.176;6.540;2022-09-27T04:16:02;4.70;;;0.57;;
52450;SDS011;38366;53.176;6.540;2022-09-27T04:18:28;7.22;;;1.15;;
52450;SDS011;38366;53.176;6.540;2022-09-27T04:20:54;3.95;;;0.73;;
52450;SDS011;38366;53.176;6.540;2022-09-27T04:23:19;4.43;;;0.50;;
52450;SDS011;38366;53.176;6.540;2022-09-27T04:25:45;5.27;;;0.50;;
52450;SDS011;38366;53.176;6.540;2022-09-27T04:28:11;2.20;;;0.50;;
52450;SDS011;38366;53.176;6.540;2022-09-27T04:30:37;2.40;;;0.55;;
52450;SDS011;38366;53.176;6.540;2022-09-27T04:33:03;4.07;;;0.55;;
52450;SDS011;38366;53.176;6.540;2022-09-27T04:35:29;3.97;;;0.50;;
52450;SDS011;38366;53.176;6.540;2022-09-27T04:38:13;4.30;;;0.60;;
52450;SDS011;38366;53.176;6.540;2022-09-27T04:40:39;2.97;;;0.63;;
52450;SDS011;38366;53.176;6.540;2022-09-27T04:43:05;1.95;;;0.50;;
52450;SDS011;38366;53.176;6.540;2022-09-27T04:45:32;2.03;;;0.52;;
52450;SDS011;38366;53.176;6.540;2022-09-27T04:47:57;9.85;;;0.85;;
52450;SDS011;38366;53.176;6.540;2022-09-27T04:50:23;1.77;;;0.43;;
52450;SDS011;38366;53.176;6.540;2022-09-27T04:52:52;3.97;;;1.15;;
52450;SDS011;38366;53.176;6.540;2022-09-27T04:55:19;6.47;;;0.70;;
52450;SDS011;38366;53.176;6.540;2022-09-27T04:57:45;2.40;;;0.60;;
52450;SDS011;38366;53.176;6.540;2022-09-27T05:00:12;6.85;;;0.68;;
52450;SDS011;38366;53.176;6.540;2022-09-27T05:02:38;3.45;;;0.70;;
52450;SDS011;38366;53.176;6.540;2022-09-27T05:05:04;3.20;;;1.00;;
52450;SDS011;38366;53.176;6.540;2022-09-27T05:09:58;3.28;;;0.60;;
52450;SDS011;38366;53.176;6.540;2022-09-27T05:12:23;3.27;;;0.60;;
52450;SDS011;38366;53.176;6.540;2022-09-27T05:14:51;3.90;;;0.40;;
52450;SDS011;38366;53.176;6.540;2022-09-27T05:17:17;6.30;;;0.93;;
52450;SDS011;38366;53.176;6.540;2022-09-27T05:19:44;5.28;;;0.82;;
52450;SDS011;38366;53.176;6.540;2022-09-27T05:22:10;6.03;;;0.65;;
52450;SDS011;38366;53.176;6.540;2022-09-27T05:24:36;4.97;;;0.70;;
52450;SDS011;38366;53.176;6.540;2022-09-27T05:27:03;3.60;;;0.77;;
52450;SDS011;38366;53.176;6.540;2022-09-27T05:29:32;2.90;;;0.70;;
52450;SDS011;38366;53.176;6.540;2022-09-27T05:31:59;3.33;;;0.52;;
52450;SDS011;38366;53.176;6.540;2022-09-27T05:34:28;4.72;;;0.65;;
52450;SDS011;38366;53.176;6.540;2022-09-27T05:36:56;5.50;;;0.75;;
52450;SDS011;38366;53.176;6.540;2022-09-27T05:39:22;3.95;;;0.95;;
52450;SDS011;38366;53.176;6.540;2022-09-27T05:41:48;1.87;;;0.70;;
52450;SDS011;38366;53.176;6.540;2022-09-27T05:44:14;2.72;;;0.60;;
52450;SDS011;38366;53.176;6.540;2022-09-27T05:46:40;4.30;;;0.50;;
52450;SDS011;38366;53.176;6.540;2022-09-27T05:49:06;8.98;;;0.82;;
52450;SDS011;38366;53.176;6.540;2022-09-27T05:51:32;7.43;;;0.98;;
52450;SDS011;38366;53.176;6.540;2022-09-27T05:53:58;9.15;;;0.65;;
52450;SDS011;38366;53.176;6.540;2022-09-27T05:56:23;2.53;;;0.70;;
52450;SDS011;38366;53.176;6.540;2022-09-27T05:58:49;2.85;;;0.75;;
52450;SDS011;38366;53.176;6.540;2022-09-27T06:01:16;5.03;;;0.52;;
52450;SDS011;38366;53.176;6.540;2022-09-27T06:03:42;1.83;;;0.75;;
52450;SDS011;38366;53.176;6.540;2022-09-27T06:06:08;6.57;;;1.15;;
52450;SDS011;38366;53.176;6.540;2022-09-27T06:08:35;3.22;;;0.65;;
52450;SDS011;38366;53.176;6.540;2022-09-27T06:11:03;3.75;;;0.65;;
52450;SDS011;38366;53.176;6.540;2022-09-27T06:13:31;4.90;;;0.90;;
52450;SDS011;38366;53.176;6.540;2022-09-27T06:15:57;3.05;;;0.50;;
52450;SDS011;38366;53.176;6.540;2022-09-27T06:18:24;4.80;;;0.70;;
52450;SDS011;38366;53.176;6.540;2022-09-27T06:20:50;3.67;;;0.50;;
52450;SDS011;38366;53.176;6.540;2022-09-27T06:23:16;5.47;;;0.82;;
52450;SDS011;38366;53.176;6.540;2022-09-27T06:25:49;3.22;;;0.60;;
52450;SDS011;38366;53.176;6.540;2022-09-27T06:28:16;2.95;;;0.68;;
52450;SDS011;38366;53.176;6.540;2022-09-27T06:30:43;2.15;;;0.70;;
52450;SDS011;38366;53.176;6.540;2022-09-27T06:33:11;2.65;;;0.40;;
52450;SDS011;38366;53.176;6.540;2022-09-27T06:35:38;3.28;;;0.68;;
52450;SDS011;38366;53.176;6.540;2022-09-27T06:38:06;4.70;;;0.75;;
52450;SDS011;38366;53.176;6.540;2022-09-27T06:40:34;1.85;;;0.50;;
52450;SDS011;38366;53.176;6.540;2022-09-27T06:43:03;2.67;;;0.63;;
52450;SDS011;38366;53.176;6.540;2022-09-27T06:45:32;4.38;;;0.80;;
52450;SDS011;38366;53.176;6.540;2022-09-27T06:48:02;3.47;;;0.60;;
52450;SDS011;38366;53.176;6.540;2022-09-27T06:50:29;2.30;;;0.73;;
52450;SDS011;38366;53.176;6.540;2022-09-27T06:52:56;6.75;;;0.70;;
52450;SDS011;38366;53.176;6.540;2022-09-27T06:55:22;3.83;;;0.63;;
52450;SDS011;38366;53.176;6.540;2022-09-27T06:57:48;5.07;;;0.70;;
52450;SDS011;38366;53.176;6.540;2022-09-27T07:00:37;4.30;;;0.80;;
52450;SDS011;38366;53.176;6.540;2022-09-27T07:03:02;2.63;;;0.80;;
52450;SDS011;38366;53.176;6.540;2022-09-27T07:05:28;5.00;;;0.80;;
52450;SDS011;38366;53.176;6.540;2022-09-27T07:07:55;2.22;;;0.70;;
52450;SDS011;38366;53.176;6.540;2022-09-27T07:10:26;4.18;;;1.48;;
52450;SDS011;38366;53.176;6.540;2022-09-27T07:12:53;6.75;;;0.77;;
52450;SDS011;38366;53.176;6.540;2022-09-27T07:15:20;2.35;;;0.52;;
52450;SDS011;38366;53.176;6.540;2022-09-27T07:17:46;4.45;;;0.70;;
52450;SDS011;38366;53.176;6.540;2022-09-27T07:20:19;3.50;;;0.65;;
52450;SDS011;38366;53.176;6.540;2022-09-27T07:22:45;5.13;;;0.50;;
52450;SDS011;38366;53.176;6.540;2022-09-27T07:25:10;2.50;;;0.47;;
52450;SDS011;38366;53.176;6.540;2022-09-27T07:27:36;3.55;;;0.85;;
52450;SDS011;38366;53.176;6.540;2022-09-27T07:30:05;2.40;;;0.70;;
52450;SDS011;38366;53.176;6.540;2022-09-27T07:32:32;2.58;;;0.93;;
52450;SDS011;38366;53.176;6.540;2022-09-27T07:35:01;2.75;;;0.70;;
52450;SDS011;38366;53.176;6.540;2022-09-27T07:39:52;3.00;;;0.60;;
52450;SDS011;38366;53.176;6.540;2022-09-27T07:42:18;2.40;;;0.40;;
52450;SDS011;38366;53.176;6.540;2022-09-27T07:44:44;2.92;;;0.60;;
52450;SDS011;38366;53.176;6.540;2022-09-27T07:47:10;4.63;;;0.67;;
52450;SDS011;38366;53.176;6.540;2022-09-27T07:49:35;2.53;;;0.70;;
52450;SDS011;38366;53.176;6.540;2022-09-27T07:52:01;3.35;;;0.60;;
52450;SDS011;38366;53.176;6.540;2022-09-27T07:54:27;3.50;;;0.60;;
52450;SDS011;38366;53.176;6.540;2022-09-27T07:56:53;3.88;;;0.80;;
52450;SDS011;38366;53.176;6.540;2022-09-27T08:01:45;2.40;;;0.75;;
52450;SDS011;38366;53.176;6.540;2022-09-27T08:04:11;2.10;;;0.40;;
52450;SDS011;38366;53.176;6.540;2022-09-27T08:06:36;3.17;;;0.60;;
52450;SDS011;38366;53.176;6.540;2022-09-27T08:09:04;4.13;;;0.40;;
52450;SDS011;38366;53.176;6.540;2022-09-27T08:11:36;2.85;;;0.50;;
52450;SDS011;38366;53.176;6.540;2022-09-27T08:14:02;3.20;;;0.40;;
52450;SDS011;38366;53.176;6.540;2022-09-27T08:16:29;0.65;;;0.20;;
52450;SDS011;38366;53.176;6.540;2022-09-27T08:18:57;0.75;;;0.40;;
52450;SDS011;38366;53.176;6.540;2022-09-27T08:21:23;2.57;;;0.30;;
52450;SDS011;38366;53.176;6.540;2022-09-27T08:23:48;2.55;;;0.30;;
52450;SDS011;38366;53.176;6.540;2022-09-27T08:26:14;2.57;;;0.40;;
52450;SDS011;38366;53.176;6.540;2022-09-27T08:28:40;1.27;;;0.30;;
52450;SDS011;38366;53.176;6.540;2022-09-27T08:31:05;1.67;;;0.20;;
52450;SDS011;38366;53.176;6.540;2022-09-27T08:33:31;3.50;;;0.32;;
52450;SDS011;38366;53.176;6.540;2022-09-27T08:35:57;1.47;;;0.40;;
52450;SDS011;38366;53.176;6.540;2022-09-27T08:38:22;3.07;;;0.60;;
52450;SDS011;38366;53.176;6.540;2022-09-27T08:40:52;1.60;;;0.30;;
52450;SDS011;38366;53.176;6.540;2022-09-27T08:43:27;1.80;;;0.20;;
52450;SDS011;38366;53.176;6.540;2022-09-27T08:48:33;2.40;;;0.50;;
52450;SDS011;38366;53.176;6.540;2022-09-27T08:51:01;5.70;;;0.50;;
52450;SDS011;38366;53.176;6.540;2022-09-27T08:53:37;2.08;;;0.40;;
52450;SDS011;38366;53.176;6.540;2022-09-27T08:56:25;1.65;;;0.30;;
52450;SDS011;38366;53.176;6.540;2022-09-27T08:59:01;1.27;;;0.30;;
52450;SDS011;38366;53.176;6.540;2022-09-27T09:01:34;2.55;;;0.43;;
52450;SDS011;38366;53.176;6.540;2022-09-27T09:04:00;2.63;;;0.40;;
52450;SDS011;38366;53.176;6.540;2022-09-27T09:12:08;1.45;;;0.40;;
52450;SDS011;38366;53.176;6.540;2022-09-27T09:18:06;2.40;;;0.50;;
52450;SDS011;38366;53.176;6.540;2022-09-27T09:23:48;12.52;;;0.73;;
52450;SDS011;38366;53.176;6.540;2022-09-27T09:35:00;1.45;;;0.47;;
52450;SDS011;38366;53.176;6.540;2022-09-27T09:37:49;2.05;;;0.30;;
52450;SDS011;38366;53.176;6.540;2022-09-27T09:45:43;1.65;;;0.20;;
52450;SDS011;38366;53.176;6.540;2022-09-27T09:48:28;0.98;;;0.15;;
52450;SDS011;38366;53.176;6.540;2022-09-27T09:51:33;1.45;;;0.10;;
52450;SDS011;38366;53.176;6.540;2022-09-27T09:54:05;2.50;;;0.13;;
52450;SDS011;38366;53.176;6.540;2022-09-27T09:56:41;0.57;;;0.10;;
52450;SDS011;38366;53.176;6.540;2022-09-27T10:05:02;0.45;;;0.20;;
52450;SDS011;38366;53.176;6.540;2022-09-27T10:07:30;0.70;;;0.10;;
52450;SDS011;38366;53.176;6.540;2022-09-27T10:10:01;0.68;;;0.20;;
52450;SDS011;38366;53.176;6.540;2022-09-27T10:12:29;1.20;;;0.20;;
52450;SDS011;38366;53.176;6.540;2022-09-27T10:14:56;0.57;;;0.10;;
52450;SDS011;38366;53.176;6.540;2022-09-27T10:17:27;1.92;;;0.20;;
52450;SDS011;38366;53.176;6.540;2022-09-27T10:20:03;0.65;;;0.13;;
52450;SDS011;38366;53.176;6.540;2022-09-27T10:22:39;1.45;;;0.10;;
52450;SDS011;38366;53.176;6.540;2022-09-27T10:25:11;1.20;;;0.20;;
52450;SDS011;38366;53.176;6.540;2022-09-27T10:30:53;0.28;;;0.10;;
52450;SDS011;38366;53.176;6.540;2022-09-27T10:33:03;1.55;;;0.28;;
52450;SDS011;38366;53.176;6.540;2022-09-27T10:35:39;1.38;;;0.20;;
52450;SDS011;38366;53.176;6.540;2022-09-27T10:38:21;0.77;;;0.20;;
52450;SDS011;38366;53.176;6.540;2022-09-27T10:40:49;0.43;;;0.20;;
52450;SDS011;38366;53.176;6.540;2022-09-27T10:48:44;1.45;;;0.10;;
52450;SDS011;38366;53.176;6.540;2022-09-27T10:51:24;1.40;;;0.25;;
52450;SDS011;38366;53.176;6.540;2022-09-27T10:53:53;0.98;;;0.10;;
52450;SDS011;38366;53.176;6.540;2022-09-27T10:56:28;1.27;;;0.20;;
52450;SDS011;38366;53.176;6.540;2022-09-27T10:58:56;2.38;;;0.20;;
52450;SDS011;38366;53.176;6.540;2022-09-27T11:01:37;0.43;;;0.13;;
52450;SDS011;38366;53.176;6.540;2022-09-27T11:04:06;0.60;;;0.17;;
52450;SDS011;38366;53.176;6.540;2022-09-27T11:06:47;2.10;;;0.20;;
52450;SDS011;38366;53.176;6.540;2022-09-27T11:09:17;0.73;;;0.30;;
52450;SDS011;38366;53.176;6.540;2022-09-27T11:11:48;1.90;;;0.30;;
52450;SDS011;38366;53.176;6.540;2022-09-27T11:14:19;2.58;;;0.30;;
52450;SDS011;38366;53.176;6.540;2022-09-27T11:17:07;0.68;;;0.20;;
52450;SDS011;38366;53.176;6.540;2022-09-27T11:27:31;0.88;;;0.20;;
52450;SDS011;38366;53.176;6.540;2022-09-27T11:30:12;3.72;;;0.30;;
52450;SDS011;38366;53.176;6.540;2022-09-27T11:35:58;0.30;;;0.10;;
52450;SDS011;38366;53.176;6.540;2022-09-27T11:38:07;1.67;;;0.30;;
52450;SDS011;38366;53.176;6.540;2022-09-27T11:57:56;2.80;;;0.40;;
52450;SDS011;38366;53.176;6.540;2022-09-27T12:06:47;1.08;;;0.10;;
52450;SDS011;38366;53.176;6.540;2022-09-27T12:09:17;0.85;;;0.65;;
52450;SDS011;38366;53.176;6.540;2022-09-27T12:12:03;0.57;;;0.10;;
52450;SDS011;38366;53.176;6.540;2022-09-27T12:17:27;0.70;;;0.28;;
52450;SDS011;38366;53.176;6.540;2022-09-27T12:19:56;0.77;;;0.20;;
52450;SDS011;38366;53.176;6.540;2022-09-27T12:22:29;1.13;;;0.17;;
52450;SDS011;38366;53.176;6.540;2022-09-27T12:24:59;1.90;;;0.30;;
52450;SDS011;38366;53.176;6.540;2022-09-27T12:29:59;4.68;;;0.35;;
52450;SDS011;38366;53.176;6.540;2022-09-27T12:32:26;2.95;;;0.35;;
52450;SDS011;38366;53.176;6.540;2022-09-27T12:37:45;2.20;;;0.50;;
52450;SDS011;38366;53.176;6.540;2022-09-27T12:42:46;1.52;;;0.28;;
52450;SDS011;38366;53.176;6.540;2022-09-27T12:45:22;1.40;;;0.22;;
52450;SDS011;38366;53.176;6.540;2022-09-27T12:48:07;0.88;;;0.30;;
52450;SDS011;38366;53.176;6.540;2022-09-27T12:50:57;1.35;;;0.20;;
52450;SDS011;38366;53.176;6.540;2022-09-27T12:53:27;2.30;;;0.30;;
52450;SDS011;38366;53.176;6.540;2022-09-27T12:58:46;0.70;;;0.40;;
52450;SDS011;38366;53.176;6.540;2022-09-27T13:01:53;2.28;;;0.30;;
52450;SDS011;38366;53.176;6.540;2022-09-27T13:04:44;0.68;;;0.20;;
52450;SDS011;38366;53.176;6.540;2022-09-27T13:07:46;0.68;;;0.10;;
52450;SDS011;38366;53.176;6.540;2022-09-27T13:12:54;0.73;;;0.20;;
52450;SDS011;38366;53.176;6.540;2022-09-27T13:15:30;1.30;;;0.22;;
52450;SDS011;38366;53.176;6.540;2022-09-27T13:36:05;3.05;;;0.40;;
52450;SDS011;38366;53.176;6.540;2022-09-27T13:41:25;0.93;;;0.20;;
52450;SDS011;38366;53.176;6.540;2022-09-27T13:49:41;2.22;;;0.25;;
52450;SDS011;38366;53.176;6.540;2022-09-27T13:54:59;2.90;;;0.30;;
52450;SDS011;38366;53.176;6.540;2022-09-27T14:00:19;0.88;;;0.20;;
52450;SDS011;38366;53.176;6.540;2022-09-27T14:06:31;1.55;;;0.32;;
52450;SDS011;38366;53.176;6.540;2022-09-27T14:11:27;0.98;;;0.20;;
52450;SDS011;38366;53.176;6.540;2022-09-27T14:14:03;1.15;;;0.30;;
52450;SDS011;38366;53.176;6.540;2022-09-27T14:16:33;1.17;;;0.25;;
52450;SDS011;38366;53.176;6.540;2022-09-27T14:19:00;1.48;;;0.30;;
52450;SDS011;38366;53.176;6.540;2022-09-27T14:21:29;2.03;;;0.20;;
52450;SDS011;38366;53.176;6.540;2022-09-27T14:26:47;1.30;;;0.17;;
52450;SDS011;38366;53.176;6.540;2022-09-27T14:29:17;1.35;;;0.20;;
52450;SDS011;38366;53.176;6.540;2022-09-27T14:31:45;0.93;;;0.22;;
52450;SDS011;38366;53.176;6.540;2022-09-27T14:34:13;0.65;;;0.20;;
52450;SDS011;38366;53.176;6.540;2022-09-27T14:36:39;0.95;;;0.20;;
52450;SDS011;38366;53.176;6.540;2022-09-27T14:39:29;1.90;;;0.22;;
52450;SDS011;38366;53.176;6.540;2022-09-27T14:42:01;2.75;;;0.30;;
52450;SDS011;38366;53.176;6.540;2022-09-27T14:44:29;0.88;;;0.10;;
52450;SDS011;38366;53.176;6.540;2022-09-27T14:47:43;0.50;;;0.17;;
52450;SDS011;38366;53.176;6.540;2022-09-27T14:49:50;0.95;;;0.20;;
52450;SDS011;38366;53.176;6.540;2022-09-27T14:52:20;1.63;;;0.30;;
52450;SDS011;38366;53.176;6.540;2022-09-27T14:55:00;0.90;;;0.20;;
52450;SDS011;38366;53.176;6.540;2022-09-27T14:57:30;3.65;;;0.35;;
52450;SDS011;38366;53.176;6.540;2022-09-27T14:59:58;1.73;;;0.25;;
52450;SDS011;38366;53.176;6.540;2022-09-27T15:02:40;0.52;;;0.10;;
52450;SDS011;38366;53.176;6.540;2022-09-27T15:05:15;0.82;;;0.10;;
52450;SDS011;38366;53.176;6.540;2022-09-27T15:07:43;0.80;;;0.20;;
52450;SDS011;38366;53.176;6.540;2022-09-27T15:10:14;2.10;;;0.20;;
52450;SDS011;38366;53.176;6.540;2022-09-27T15:12:42;2.28;;;0.30;;
52450;SDS011;38366;53.176;6.540;2022-09-27T15:15:13;1.33;;;0.22;;
52450;SDS011;38366;53.176;6.540;2022-09-27T15:17:45;2.40;;;0.30;;
52450;SDS011;38366;53.176;6.540;2022-09-27T15:22:46;1.45;;;0.30;;
52450;SDS011;38366;53.176;6.540;2022-09-27T15:25:17;0.88;;;0.40;;
52450;SDS011;38366;53.176;6.540;2022-09-27T15:27:56;2.72;;;0.50;;
52450;SDS011;38366;53.176;6.540;2022-09-27T15:30:26;1.33;;;0.30;;
52450;SDS011;38366;53.176;6.540;2022-09-27T15:32:57;1.00;;;0.40;;
52450;SDS011;38366;53.176;6.540;2022-09-27T15:35:25;1.83;;;0.40;;
52450;SDS011;38366;53.176;6.540;2022-09-27T15:38:20;1.95;;;0.52;;
52450;SDS011;38366;53.176;6.540;2022-09-27T15:43:21;3.50;;;0.40;;
52450;SDS011;38366;53.176;6.540;2022-09-27T15:45:56;1.55;;;0.30;;
52450;SDS011;38366;53.176;6.540;2022-09-27T15:48:31;2.55;;;0.30;;
52450;SDS011;38366;53.176;6.540;2022-09-27T15:50:59;2.55;;;0.30;;
52450;SDS011;38366;53.176;6.540;2022-09-27T15:56:03;2.15;;;0.32;;
52450;SDS011;38366;53.176;6.540;2022-09-27T15:58:33;1.10;;;0.38;;
52450;SDS011;38366;53.176;6.540;2022-09-27T16:01:02;0.38;;;0.30;;
52450;SDS011;38366;53.176;6.540;2022-09-27T16:03:31;2.90;;;0.40;;
52450;SDS011;38366;53.176;6.540;2022-09-27T16:05:58;1.30;;;0.55;;
52450;SDS011;38366;53.176;6.540;2022-09-27T16:08:26;3.80;;;0.60;;
52450;SDS011;38366;53.176;6.540;2022-09-27T16:10:54;2.70;;;0.40;;
52450;SDS011;38366;53.176;6.540;2022-09-27T16:13:25;3.88;;;0.50;;
52450;SDS011;38366;53.176;6.540;2022-09-27T16:15:51;4.03;;;0.40;;
52450;SDS011;38366;53.176;6.540;2022-09-27T16:18:17;1.42;;;0.50;;
52450;SDS011;38366;53.176;6.540;2022-09-27T16:20:43;0.82;;;0.47;;
52450;SDS011;38366;53.176;6.540;2022-09-27T16:23:09;1.17;;;0.47;;
52450;SDS011;38366;53.176;6.540;2022-09-27T16:25:35;2.75;;;0.85;;
52450;SDS011;38366;53.176;6.540;2022-09-27T16:28:01;2.35;;;0.55;;
52450;SDS011;38366;53.176;6.540;2022-09-27T16:30:28;1.48;;;0.60;;
52450;SDS011;38366;53.176;6.540;2022-09-27T16:32:54;0.93;;;0.40;;
52450;SDS011;38366;53.176;6.540;2022-09-27T16:35:20;2.42;;;0.60;;
52450;SDS011;38366;53.176;6.540;2022-09-27T16:37:47;1.15;;;0.32;;
52450;SDS011;38366;53.176;6.540;2022-09-27T16:40:13;1.05;;;0.30;;
52450;SDS011;38366;53.176;6.540;2022-09-27T16:42:42;2.45;;;0.40;;
52450;SDS011;38366;53.176;6.540;2022-09-27T16:45:08;2.42;;;0.52;;
52450;SDS011;38366;53.176;6.540;2022-09-27T16:47:35;2.55;;;0.80;;
52450;SDS011;38366;53.176;6.540;2022-09-27T16:50:01;3.45;;;0.45;;
52450;SDS011;38366;53.176;6.540;2022-09-27T16:52:46;1.85;;;0.30;;
52450;SDS011;38366;53.176;6.540;2022-09-27T16:55:14;0.90;;;0.20;;
52450;SDS011;38366;53.176;6.540;2022-09-27T16:57:48;2.63;;;0.65;;
52450;SDS011;38366;53.176;6.540;2022-09-27T17:00:15;4.68;;;0.95;;
52450;SDS011;38366;53.176;6.540;2022-09-27T17:02:42;2.22;;;0.40;;
52450;SDS011;38366;53.176;6.540;2022-09-27T17:05:11;3.08;;;0.50;;
52450;SDS011;38366;53.176;6.540;2022-09-27T17:10:03;1.60;;;0.40;;
52450;SDS011;38366;53.176;6.540;2022-09-27T17:14:55;2.28;;;0.30;;
52450;SDS011;38366;53.176;6.540;2022-09-27T17:17:21;1.23;;;0.20;;
52450;SDS011;38366;53.176;6.540;2022-09-27T17:19:47;1.70;;;0.30;;
52450;SDS011;38366;53.176;6.540;2022-09-27T17:22:12;2.40;;;0.50;;
52450;SDS011;38366;53.176;6.540;2022-09-27T17:24:38;0.77;;;0.37;;
52450;SDS011;38366;53.176;6.540;2022-09-27T17:27:04;1.70;;;0.30;;
52450;SDS011;38366;53.176;6.540;2022-09-27T17:29:29;2.03;;;0.30;;
52450;SDS011;38366;53.176;6.540;2022-09-27T17:31:55;2.30;;;0.40;;
52450;SDS011;38366;53.176;6.540;2022-09-27T17:34:21;0.77;;;0.30;;
52450;SDS011;38366;53.176;6.540;2022-09-27T17:36:47;3.33;;;0.40;;
52450;SDS011;38366;53.176;6.540;2022-09-27T17:39:14;2.60;;;0.50;;
52450;SDS011;38366;53.176;6.540;2022-09-27T17:41:42;1.95;;;0.40;;
52450;SDS011;38366;53.176;6.540;2022-09-27T17:44:10;5.15;;;0.45;;
52450;SDS011;38366;53.176;6.540;2022-09-27T17:46:38;0.85;;;0.30;;
52450;SDS011;38366;53.176;6.540;2022-09-27T17:49:04;2.50;;;0.32;;
52450;SDS011;38366;53.176;6.540;2022-09-27T17:51:49;1.58;;;0.30;;
52450;SDS011;38366;53.176;6.540;2022-09-27T17:54:17;1.75;;;0.30;;
52450;SDS011;38366;53.176;6.540;2022-09-27T17:56:43;3.65;;;0.32;;
52450;SDS011;38366;53.176;6.540;2022-09-27T17:59:10;2.88;;;0.40;;
52450;SDS011;38366;53.176;6.540;2022-09-27T18:01:40;2.58;;;0.52;;
52450;SDS011;38366;53.176;6.540;2022-09-27T18:06:39;2.28;;;0.40;;
52450;SDS011;38366;53.176;6.540;2022-09-27T18:09:10;3.22;;;0.50;;
52450;SDS011;38366;53.176;6.540;2022-09-27T18:11:38;4.85;;;0.70;;
52450;SDS011;38366;53.176;6.540;2022-09-27T18:14:04;1.15;;;0.47;;
52450;SDS011;38366;53.176;6.540;2022-09-27T18:19:00;1.23;;;0.30;;
52450;SDS011;38366;53.176;6.540;2022-09-27T18:21:28;1.55;;;0.47;;
52450;SDS011;38366;53.176;6.540;2022-09-27T18:23:55;1.55;;;0.40;;
52450;SDS011;38366;53.176;6.540;2022-09-27T18:26:23;3.97;;;0.60;;
52450;SDS011;38366;53.176;6.540;2022-09-27T18:28:50;2.22;;;0.43;;